KMIC/MIC METAR and TAF weather

Enter ICAO airport designator
Station Type Date Time Source
KMIC METAR 2021/05/14 04:53 UTC NOAA

KMIC 140453Z 17005KT 10SM CLR 13/M03 A3020 RMK AO2 SLP227 T01281028


Station Type Date Time Source
KMIC Decoded METAR 2021/05/14 04:53 UTC NOAA

CRYSTAL AIRPORT, MN, United States (KMIC) 45-04N 093-21W 265M
May 14, 2021 - 12:53 AM EDT / 2021.05.14 0453 UTC
Wind: from the S (170 degrees) at 6 MPH (5 KT):0
Visibility: 10 mile(s):0
Sky conditions: clear
Temperature: 55.0 F (12.8 C)
Dew Point: 27.0 F (-2.8 C)
Relative Humidity: 33%
Pressure (altimeter): 30.2 in. Hg (1022 hPa)
ob: KMIC 140453Z 17005KT 10SM CLR 13/M03 A3020 RMK AO2 SLP227 T01281028
cycle: 5

Station Type Date Time Source
KMIC TAF UTC NOAA

Error!

Example: see airport list